This is the latest recevied weather packets stored in our database for station/object SV9TNF-4. If no packets are shown the sender has not sent any weather packets the latest 1 day(s).
| Time | Temp. | Humidity | Pressure | Rain* | Wind** | Luminosity | Snow |
|---|---|---|---|---|---|---|---|
| 1778105441 | 16.67° C | 47% | 1019.3 hPa | 0 mm | 1.79 m/s, 324° | - | - |
| 1778102740 | 16.67° C | 47% | 1019.3 hPa | 0 mm | 1.79 m/s, 324° | - | - |
| 1778102440 | 16.67° C | 47% | 1019.3 hPa | 0 mm | 1.79 m/s, 324° | - | - |
| 1778100339 | 16.67° C | 49% | 1019.3 hPa | 0 mm | 3.13 m/s, 333° | - | - |
| 1778099739 | 17.22° C | 51% | 1019.3 hPa | 0 mm | 1.79 m/s, 338° | - | - |
| 1778099439 | 16.67° C | 63% | 1019.3 hPa | 0 mm | 3.13 m/s, 329° | - | - |
| 1778093737 | 17.78° C | 73% | 1019 hPa | 0 mm | 0 m/s | - | - |
| 1778093437 | 17.78° C | 73% | 1019 hPa | 0 mm | 0 m/s | - | - |
| 1778092837 | 17.78° C | 73% | 1019 hPa | 0 mm | 0 m/s | - | - |
| 1778092237 | 17.78° C | 73% | 1019 hPa | 0 mm | 0 m/s | - | - |
| 1778090136 | 19.44° C | 71% | 1018.3 hPa | 0 mm | 1.79 m/s, 80° | - | - |
| 1778086535 | 21.67° C | 44% | 1017.3 hPa | 0 mm | 4.92 m/s, 298° | - | - |
| 1778086235 | 21.67° C | 44% | 1017.3 hPa | 0 mm | 4.92 m/s, 298° | - | - |
| 1778085935 | 21.67° C | 44% | 1017.3 hPa | 0 mm | 4.92 m/s, 298° | - | - |
| 1778085634 | 21.67° C | 44% | 1017.3 hPa | 0 mm | 4.92 m/s, 298° | - | - |
| 1778084134 | 22.22° C | 53% | 1017.3 hPa | 0 mm | 12.96 m/s, 267° | - | - |
| 1778082634 | 22.22° C | 53% | 1017.3 hPa | 0 mm | 12.96 m/s, 267° | - | - |
| 1778082334 | 22.78° C | 55% | 1017.3 hPa | 0 mm | 8.05 m/s, 288° | - | - |
| 1778082034 | 22.78° C | 55% | 1017.3 hPa | 0 mm | 8.05 m/s, 288° | - | - |
| 1778080833 | 23.33° C | 49% | 1017.6 hPa | 0 mm | 9.83 m/s, 273° | - | - |
| 1778080533 | 23.33° C | 49% | 1017.6 hPa | 0 mm | 9.83 m/s, 273° | - | - |
| 1778079933 | 23.33° C | 49% | 1017.6 hPa | 0 mm | 9.83 m/s, 273° | - | - |
| 1778079033 | 23.33° C | 49% | 1017.6 hPa | 0 mm | 9.83 m/s, 273° | - | - |
| 1778078432 | 23.33° C | 48% | 1018 hPa | 0 mm | 4.92 m/s, 250° | - | - |
| 1778078132 | 23.33° C | 48% | 1018 hPa | 0 mm | 4.92 m/s, 250° | - | - |
* Rain latest hour (hover to see other rain measurements)
** Current wind speed in m/s (hover to see current wind gust speed)